Terminal Aerodrome Forecast
Issued by NWS Newport/Morehead City, NC

Home | Current Version | Previous Version | Graphics & Text | Print | Product List | Glossary On
Versions: 1 2 3 4 5 6 7 8 9 10 11 12 13 14
570
FTUS42 KMHX 062337
TAFEWN
TAF
KEWN 062337Z 0700/0724 04008KT P6SM OVC070
     FM070800 01013G20KT 6SM -RA SCT025 BKN040
     FM071300 02017G24KT 5SM -RA OVC020
     FM071800 01018G27KT 5SM -RA SCT007 OVC010=

USA.gov is the U.S. government's official web portal to all federal, state and local government web resources and services.